Time;durP1;ratioP1;P1;durP2;ratioP2;P2;SDS_P1;SDS_P2;PMS_P1;PMS_P2;Temp;Humidity;BMP_temperature;BMP_pressure;BME280_temperature;BME280_humidity;BME280_pressure;Samples;Min_cycle;Max_cycle;Signal;HPM_P1;HPM_P2
2023/02/02 00:00:50;;;;;;;8.88;2.75;;;4.90;99.90;;;;;;5073768;28;20046;-82
2023/02/02 00:03:16;;;;;;;9.20;3.33;;;4.90;99.90;;;;;;5061364;28;20043;-83
2023/02/02 00:05:49;;;;;;;11.73;3.97;;;4.80;99.90;;;;;;5074221;28;20045;-83
2023/02/02 00:08:16;;;;;;;11.15;4.30;;;4.80;99.90;;;;;;5060211;28;20036;-84
2023/02/02 00:10:42;;;;;;;10.20;4.97;;;4.80;99.90;;;;;;5076240;28;20059;-84
2023/02/02 00:13:07;;;;;;;20.75;4.95;;;4.80;99.90;;;;;;5065013;28;20037;-82
2023/02/02 00:15:33;;;;;;;18.67;5.65;;;4.80;99.90;;;;;;5083621;28;20035;-83
2023/02/02 00:17:58;;;;;;;10.30;4.95;;;4.80;99.90;;;;;;5064343;28;20029;-83
2023/02/02 00:20:24;;;;;;;10.82;3.92;;;4.80;99.90;;;;;;5036858;28;20036;-83
2023/02/02 00:22:49;;;;;;;9.50;3.38;;;4.90;99.90;;;;;;5061399;28;20047;-83
2023/02/02 00:25:15;;;;;;;28.55;6.32;;;4.90;99.90;;;;;;5041604;28;20062;-84
2023/02/02 00:27:41;;;;;;;8.65;3.88;;;5.00;99.90;;;;;;5050083;28;20063;-83
2023/02/02 00:30:07;;;;;;;12.38;3.70;;;5.00;99.90;;;;;;5085101;28;20028;-83
2023/02/02 00:32:32;;;;;;;10.75;2.25;;;5.00;99.90;;;;;;5055159;28;20081;-84
2023/02/02 00:34:58;;;;;;;14.10;2.92;;;5.10;99.90;;;;;;5074836;28;20044;-84
2023/02/02 00:37:23;;;;;;;19.00;3.28;;;5.10;99.90;;;;;;5053523;28;20027;-84
2023/02/02 00:39:49;;;;;;;9.60;2.28;;;5.10;99.90;;;;;;5060853;28;20122;-83
2023/02/02 00:42:14;;;;;;;11.63;2.00;;;5.10;99.90;;;;;;5076445;28;20542;-84
2023/02/02 00:47:24;;;;;;;6.18;1.65;;;5.20;99.90;;;;;;5072882;28;20057;-84
2023/02/02 00:49:50;;;;;;;9.00;2.28;;;5.20;99.90;;;;;;5075793;28;20077;-84
2023/02/02 00:52:15;;;;;;;11.73;1.92;;;5.20;99.90;;;;;;5072617;28;20020;-83
2023/02/02 00:54:41;;;;;;;8.43;1.92;;;5.20;99.90;;;;;;5070575;28;20043;-84
2023/02/02 00:57:08;;;;;;;5.97;1.83;;;5.30;99.90;;;;;;5073662;28;20032;-83
2023/02/02 00:59:33;;;;;;;6.65;1.60;;;5.30;99.90;;;;;;5078458;28;20483;-82
2023/02/02 01:02:00;;;;;;;9.32;2.20;;;5.30;99.90;;;;;;5086788;28;20039;-82
2023/02/02 01:04:26;;;;;;;11.20;2.45;;;5.30;99.90;;;;;;5084378;28;20063;-84
2023/02/02 01:06:51;;;;;;;7.97;2.38;;;5.30;99.90;;;;;;5069989;28;20495;-85
2023/02/02 01:09:17;;;;;;;13.70;3.75;;;5.30;99.90;;;;;;5072787;28;20035;-83
2023/02/02 01:11:42;;;;;;;9.98;2.45;;;5.30;99.90;;;;;;5052906;28;20059;-83
2023/02/02 01:14:08;;;;;;;17.02;4.75;;;5.40;99.90;;;;;;5088309;28;20059;-83
2023/02/02 01:16:34;;;;;;;7.45;3.13;;;5.40;99.90;;;;;;5088389;28;20048;-83
2023/02/02 01:18:59;;;;;;;14.50;3.75;;;5.50;99.90;;;;;;5087922;28;20440;-82
2023/02/02 01:21:25;;;;;;;11.43;4.32;;;5.50;99.90;;;;;;5072293;28;20047;-82
2023/02/02 01:23:50;;;;;;;9.32;3.13;;;5.50;99.90;;;;;;5092820;28;20031;-82
2023/02/02 01:26:16;;;;;;;10.48;4.22;;;5.50;99.90;;;;;;5066464;28;20111;-82
2023/02/02 01:28:41;;;;;;;23.55;7.55;;;5.50;99.90;;;;;;5056633;28;20119;-82
2023/02/02 01:31:15;;;;;;;18.35;5.35;;;5.50;99.90;;;;;;5071406;28;20472;-83
2023/02/02 01:33:41;;;;;;;13.70;4.90;;;5.60;99.90;;;;;;5034811;28;20063;-83
2023/02/02 01:36:09;;;;;;;17.92;8.02;;;5.60;99.90;;;;;;5076191;28;20032;-83
2023/02/02 01:38:36;;;;;;;10.10;3.20;;;5.60;99.90;;;;;;5078009;27;20423;-83
2023/02/02 01:41:03;;;;;;;15.35;4.45;;;5.60;99.90;;;;;;5059558;28;20028;-83
2023/02/02 01:43:41;;;;;;;19.77;6.78;;;5.60;99.90;;;;;;5036791;28;20073;-83
2023/02/02 01:46:17;;;;;;;20.73;7.05;;;5.60;99.90;;;;;;5069837;28;20456;-82
2023/02/02 01:48:56;;;;;;;17.15;6.03;;;5.60;99.90;;;;;;5082175;28;20105;-83
2023/02/02 01:51:28;;;;;;;28.42;7.72;;;5.60;99.90;;;;;;5047613;28;20555;-82
2023/02/02 01:53:55;;;;;;;18.08;4.90;;;5.70;99.90;;;;;;5081099;28;20633;-83
2023/02/02 01:56:34;;;;;;;16.83;5.93;;;5.70;99.90;;;;;;5045464;27;20123;-83
2023/02/02 01:58:59;;;;;;;14.50;4.55;;;5.70;99.90;;;;;;5067216;28;20531;-83
2023/02/02 02:01:25;;;;;;;20.95;5.68;;;5.70;99.90;;;;;;5062483;28;20024;-82
2023/02/02 02:03:51;;;;;;;25.50;7.18;;;5.70;99.90;;;;;;5044820;28;20043;-82
2023/02/02 02:06:17;;;;;;;19.70;5.70;;;5.80;99.90;;;;;;5047999;28;20059;-83
2023/02/02 02:08:46;;;;;;;23.95;7.22;;;5.80;99.90;;;;;;5065691;28;20053;-82
2023/02/02 02:11:13;;;;;;;23.40;5.90;;;5.80;99.90;;;;;;5077109;28;20376;-83
2023/02/02 02:17:00;;;;;;;26.55;6.75;;;5.80;99.90;;;;;;5078339;28;20041;-82
2023/02/02 02:29:16;;;;;;;16.80;4.57;;;5.90;99.90;;;;;;5087826;28;20127;-82
2023/02/02 02:32:04;;;;;;;31.42;6.30;;;5.90;99.90;;;;;;5092788;28;20050;-83
2023/02/02 02:34:47;;;;;;;22.13;4.95;;;6.00;99.90;;;;;;5069392;28;20032;-84
2023/02/02 02:37:28;;;;;;;24.88;6.80;;;5.90;99.90;;;;;;5071317;28;20822;-84
2023/02/02 02:40:09;;;;;;;12.27;4.13;;;6.00;99.90;;;;;;5080502;28;20028;-83
2023/02/02 02:42:37;;;;;;;34.95;7.03;;;6.00;99.90;;;;;;5044679;28;20575;-82
2023/02/02 02:45:03;;;;;;;26.70;6.43;;;5.90;99.90;;;;;;5057593;28;20041;-84
2023/02/02 02:47:29;;;;;;;23.10;5.18;;;6.00;99.90;;;;;;5041720;28;20029;-83
2023/02/02 02:49:55;;;;;;;21.75;6.10;;;6.00;99.90;;;;;;5034452;28;20040;-84
2023/02/02 02:52:20;;;;;;;23.70;6.32;;;6.00;99.90;;;;;;5036025;28;20036;-84
2023/02/02 02:54:53;;;;;;;26.33;7.28;;;6.00;99.90;;;;;;5067594;28;20112;-82
2023/02/02 02:57:46;;;;;;;25.08;5.22;;;6.00;99.90;;;;;;5072890;28;20164;-83
2023/02/02 03:00:33;;;;;;;24.77;8.65;;;6.00;99.90;;;;;;5091035;28;20468;-84
2023/02/02 03:03:16;;;;;;;26.25;7.95;;;6.00;99.90;;;;;;5068343;28;20059;-83
2023/02/02 03:05:55;;;;;;;25.55;9.73;;;6.00;99.90;;;;;;5065981;28;20036;-83
2023/02/02 03:08:30;;;;;;;21.83;8.82;;;6.00;99.90;;;;;;5080332;28;20442;-84
2023/02/02 03:10:56;;;;;;;24.65;8.40;;;6.00;99.90;;;;;;5067060;28;20037;-84
2023/02/02 03:13:22;;;;;;;25.17;10.23;;;6.10;99.90;;;;;;5053392;28;20032;-81
2023/02/02 03:15:47;;;;;;;25.33;8.48;;;6.00;99.90;;;;;;5052552;28;20081;-82
2023/02/02 03:18:15;;;;;;;24.52;9.23;;;6.00;99.90;;;;;;5062571;28;20089;-79
2023/02/02 03:20:41;;;;;;;22.83;8.07;;;6.10;99.90;;;;;;5068323;28;20484;-79
2023/02/02 03:23:07;;;;;;;21.45;8.63;;;6.10;99.90;;;;;;5068168;28;20384;-79
2023/02/02 03:25:32;;;;;;;32.92;11.27;;;6.00;99.90;;;;;;5051939;28;20051;-78
2023/02/02 03:27:58;;;;;;;17.90;7.80;;;6.10;99.90;;;;;;5071542;28;20039;-79
2023/02/02 03:30:23;;;;;;;23.80;7.22;;;6.10;99.90;;;;;;5084068;28;20514;-79
2023/02/02 03:32:49;;;;;;;37.28;10.98;;;6.10;99.90;;;;;;5067519;28;20472;-79
2023/02/02 03:35:15;;;;;;;22.90;7.10;;;6.10;99.90;;;;;;5052918;28;20032;-79
2023/02/02 03:37:40;;;;;;;14.98;7.75;;;6.10;99.90;;;;;;5057884;28;20449;-79
2023/02/02 03:40:06;;;;;;;22.98;8.95;;;6.10;99.90;;;;;;5053821;28;20036;-80
2023/02/02 03:42:32;;;;;;;23.30;9.38;;;6.10;99.90;;;;;;5090350;28;20040;-78
2023/02/02 03:44:57;;;;;;;28.67;10.95;;;6.10;99.90;;;;;;5085338;28;20040;-79
2023/02/02 03:47:23;;;;;;;36.20;12.00;;;6.10;99.90;;;;;;5064075;28;20063;-78
2023/02/02 03:49:48;;;;;;;33.17;13.02;;;6.10;99.90;;;;;;5066415;28;20074;-79
2023/02/02 03:52:14;;;;;;;44.28;16.13;;;6.10;99.90;;;;;;5070833;28;20111;-79
2023/02/02 03:54:40;;;;;;;17.00;8.43;;;6.10;99.90;;;;;;5069358;28;20095;-79
2023/02/02 03:57:05;;;;;;;42.15;13.90;;;6.10;99.90;;;;;;5083923;28;20392;-79
2023/02/02 03:59:31;;;;;;;35.80;14.55;;;6.10;99.90;;;;;;5075152;28;20518;-78
2023/02/02 04:01:56;;;;;;;41.85;13.98;;;6.20;99.90;;;;;;5072305;28;20024;-78
2023/02/02 04:04:22;;;;;;;42.70;13.77;;;6.20;99.90;;;;;;5073575;28;20028;-78
2023/02/02 04:06:47;;;;;;;32.15;10.98;;;6.20;99.90;;;;;;5090097;28;20046;-79
2023/02/02 04:09:13;;;;;;;39.08;10.68;;;6.20;99.90;;;;;;5054717;28;20047;-79
2023/02/02 04:11:38;;;;;;;32.35;9.00;;;6.20;99.90;;;;;;5071792;28;20041;-79
2023/02/02 04:14:04;;;;;;;28.35;8.77;;;6.20;99.90;;;;;;5070544;28;20040;-79
2023/02/02 04:16:33;;;;;;;25.13;8.23;;;6.20;99.90;;;;;;5056064;28;20032;-79
2023/02/02 04:18:59;;;;;;;32.08;8.65;;;6.20;99.90;;;;;;5090911;28;20111;-79
2023/02/02 04:21:24;;;;;;;16.98;6.43;;;6.20;99.90;;;;;;5056009;28;20025;-79
2023/02/02 04:23:50;;;;;;;24.75;8.07;;;6.20;99.90;;;;;;5074937;28;20076;-78
2023/02/02 04:26:15;;;;;;;23.42;7.45;;;6.20;99.90;;;;;;5090432;28;20028;-79
2023/02/02 04:28:41;;;;;;;22.48;5.65;;;6.20;99.90;;;;;;5072832;27;20426;-79
2023/02/02 04:31:06;;;;;;;23.55;7.07;;;6.20;99.90;;;;;;5073905;28;20043;-79
2023/02/02 04:33:32;;;;;;;27.58;7.25;;;6.20;99.90;;;;;;5074011;28;20028;-79
2023/02/02 04:35:58;;;;;;;24.23;6.63;;;6.30;99.90;;;;;;5055287;28;20738;-80
2023/02/02 04:38:23;;;;;;;17.10;3.35;;;6.20;99.90;;;;;;5089121;28;20042;-78
2023/02/02 04:40:49;;;;;;;15.77;4.57;;;6.20;99.90;;;;;;5093847;28;20023;-78
2023/02/02 04:43:15;;;;;;;15.38;5.20;;;6.30;99.90;;;;;;5057044;28;20399;-79
2023/02/02 04:45:41;;;;;;;18.48;5.57;;;6.30;99.90;;;;;;5084209;28;20486;-80
2023/02/02 04:48:06;;;;;;;26.00;5.97;;;6.30;99.90;;;;;;5068206;28;20525;-78
2023/02/02 04:50:32;;;;;;;18.42;5.35;;;6.30;99.90;;;;;;5059228;28;20028;-79
2023/02/02 04:52:57;;;;;;;32.97;7.03;;;6.30;99.90;;;;;;5052220;28;20124;-79
2023/02/02 04:55:23;;;;;;;17.13;4.90;;;6.30;99.90;;;;;;5069949;28;20058;-78
2023/02/02 04:57:48;;;;;;;25.00;6.00;;;6.30;99.90;;;;;;5069880;28;20032;-79
2023/02/02 05:00:14;;;;;;;24.52;7.35;;;6.30;99.90;;;;;;5054817;28;20051;-79
2023/02/02 05:02:40;;;;;;;19.30;4.97;;;6.30;99.90;;;;;;5051441;28;20031;-79
2023/02/02 05:05:08;;;;;;;18.65;5.97;;;6.30;99.90;;;;;;5070734;28;20127;-79
2023/02/02 05:07:33;;;;;;;16.35;3.53;;;6.30;99.90;;;;;;5057614;28;20757;-79
2023/02/02 05:09:59;;;;;;;18.20;3.55;;;6.30;99.90;;;;;;5073300;28;20039;-79
2023/02/02 05:12:25;;;;;;;14.07;4.13;;;6.30;99.90;;;;;;5056420;28;20020;-79
2023/02/02 05:14:50;;;;;;;17.52;5.32;;;6.30;99.90;;;;;;5053471;28;20085;-79
2023/02/02 05:17:16;;;;;;;11.95;4.40;;;6.30;99.90;;;;;;5054670;28;20443;-79
2023/02/02 05:19:41;;;;;;;11.02;2.42;;;6.30;99.90;;;;;;5070173;28;20028;-79
2023/02/02 05:22:07;;;;;;;26.52;5.40;;;6.30;99.90;;;;;;5071741;28;20369;-79
2023/02/02 05:24:32;;;;;;;15.43;4.88;;;6.30;99.90;;;;;;5052991;28;20028;-79
2023/02/02 05:26:59;;;;;;;15.32;4.60;;;6.30;99.90;;;;;;5052316;28;20028;-79
2023/02/02 05:29:28;;;;;;;17.60;5.00;;;6.30;99.90;;;;;;5087281;28;20036;-79
2023/02/02 05:31:54;;;;;;;13.07;4.68;;;6.30;99.90;;;;;;5071003;28;20503;-79
2023/02/02 05:34:19;;;;;;;12.50;4.15;;;6.30;99.90;;;;;;5068805;28;20028;-79
2023/02/02 05:36:45;;;;;;;27.17;7.05;;;6.30;99.90;;;;;;5071081;28;20024;-79
2023/02/02 05:39:11;;;;;;;25.42;5.85;;;6.30;99.90;;;;;;5072986;28;20494;-80
2023/02/02 05:41:36;;;;;;;8.57;3.45;;;6.40;99.90;;;;;;5084382;28;20034;-80
2023/02/02 05:44:02;;;;;;;16.45;6.95;;;6.40;99.90;;;;;;5054300;28;20103;-84
2023/02/02 05:46:28;;;;;;;29.92;6.75;;;6.40;99.90;;;;;;5092642;28;20040;-83
2023/02/02 05:48:53;;;;;;;13.07;4.05;;;6.40;99.90;;;;;;5054219;28;20064;-82
2023/02/02 05:51:20;;;;;;;20.38;5.50;;;6.40;99.90;;;;;;5069110;28;20063;-81
2023/02/02 05:53:46;;;;;;;25.35;4.32;;;6.40;99.90;;;;;;5088616;28;20032;-83
2023/02/02 05:56:12;;;;;;;17.70;5.82;;;6.40;99.90;;;;;;5055706;28;20070;-82
2023/02/02 05:58:37;;;;;;;17.75;4.75;;;6.40;99.90;;;;;;5062859;28;20032;-82
2023/02/02 06:01:03;;;;;;;12.07;4.10;;;6.40;99.90;;;;;;5060428;28;20028;-82
2023/02/02 06:03:29;;;;;;;11.80;4.28;;;6.40;99.90;;;;;;5059714;28;20028;-81
2023/02/02 06:05:54;;;;;;;16.50;4.25;;;6.40;99.90;;;;;;5062183;28;20040;-82
2023/02/02 06:08:20;;;;;;;12.25;4.22;;;6.40;99.90;;;;;;5061341;28;20072;-82
2023/02/02 06:10:46;;;;;;;20.73;6.35;;;6.40;99.90;;;;;;5056792;28;20115;-82
2023/02/02 06:13:11;;;;;;;24.13;6.55;;;6.40;99.90;;;;;;5069951;28;20431;-82
2023/02/02 06:15:37;;;;;;;13.25;4.60;;;6.40;99.90;;;;;;5058654;28;20538;-80
2023/02/02 06:18:04;;;;;;;27.23;7.88;;;6.40;99.90;;;;;;5057457;28;20024;-82
2023/02/02 06:20:30;;;;;;;38.17;9.45;;;6.40;99.90;;;;;;5042315;28;20080;-82
2023/02/02 06:22:55;;;;;;;21.98;7.05;;;6.40;99.90;;;;;;5065091;27;20495;-80
2023/02/02 06:25:21;;;;;;;21.20;6.32;;;6.40;99.90;;;;;;5062064;28;20066;-81
2023/02/02 06:27:48;;;;;;;16.65;4.55;;;6.50;99.90;;;;;;5055154;28;20032;-84
2023/02/02 06:30:14;;;;;;;38.72;7.43;;;6.50;99.90;;;;;;5056090;28;20476;-83
2023/02/02 06:32:39;;;;;;;22.25;6.07;;;6.40;99.90;;;;;;5040031;28;20032;-83
2023/02/02 06:35:05;;;;;;;23.17;6.50;;;6.50;99.90;;;;;;5050682;28;20043;-83
2023/02/02 06:37:32;;;;;;;14.82;5.38;;;6.50;99.90;;;;;;5054424;28;20032;-83
2023/02/02 06:39:58;;;;;;;17.13;4.72;;;6.50;99.90;;;;;;5030910;28;20029;-81
2023/02/02 06:42:24;;;;;;;19.42;3.88;;;6.50;99.90;;;;;;5043607;28;20051;-81
2023/02/02 06:44:50;;;;;;;22.17;6.60;;;6.50;99.90;;;;;;5065539;28;20112;-82
2023/02/02 06:47:15;;;;;;;14.05;4.80;;;6.50;99.90;;;;;;5079044;28;20727;-81
2023/02/02 06:49:41;;;;;;;29.45;6.15;;;6.50;99.90;;;;;;5080382;28;20426;-82
2023/02/02 06:52:06;;;;;;;19.48;5.97;;;6.50;99.90;;;;;;5080476;28;20044;-81
2023/02/02 06:54:32;;;;;;;14.85;5.30;;;6.50;99.90;;;;;;5055550;28;20040;-80
2023/02/02 06:56:58;;;;;;;23.48;6.25;;;6.50;99.90;;;;;;5061681;28;20032;-82
2023/02/02 06:59:23;;;;;;;18.58;6.00;;;6.50;99.90;;;;;;5032494;28;20055;-82
2023/02/02 07:01:49;;;;;;;25.05;6.80;;;6.50;99.90;;;;;;5062957;28;20052;-83
2023/02/02 07:04:17;;;;;;;26.08;6.57;;;6.50;99.90;;;;;;5060764;28;20033;-82
2023/02/02 07:06:43;;;;;;;21.90;5.53;;;6.50;99.90;;;;;;5054509;28;20046;-81
2023/02/02 07:09:09;;;;;;;27.02;7.28;;;6.50;99.90;;;;;;5066417;28;20044;-81
2023/02/02 07:11:35;;;;;;;19.48;7.13;;;6.50;99.90;;;;;;5033663;28;20048;-82
2023/02/02 07:14:01;;;;;;;17.05;4.45;;;6.50;99.90;;;;;;5064858;28;20491;-81
2023/02/02 07:16:27;;;;;;;30.50;5.82;;;6.50;99.90;;;;;;5080471;28;20036;-81
2023/02/02 07:18:53;;;;;;;22.98;6.20;;;6.50;99.90;;;;;;5059985;28;20514;-82
2023/02/02 07:21:20;;;;;;;24.00;6.50;;;6.50;99.90;;;;;;5064821;28;20025;-81
2023/02/02 07:23:46;;;;;;;15.18;4.50;;;6.50;99.90;;;;;;5058380;28;20067;-83
2023/02/02 07:26:13;;;;;;;31.45;9.32;;;6.50;99.90;;;;;;5079717;28;20059;-82
2023/02/02 07:28:38;;;;;;;22.55;7.28;;;6.50;99.90;;;;;;5076187;28;20036;-82
2023/02/02 07:31:16;;;;;;;25.85;7.72;;;6.60;99.90;;;;;;5065181;28;20029;-82
2023/02/02 07:33:42;;;;;;;25.10;7.30;;;6.60;99.90;;;;;;5082615;27;20480;-82
2023/02/02 07:36:08;;;;;;;22.02;6.28;;;6.60;99.90;;;;;;5042439;28;20154;-81
2023/02/02 07:38:34;;;;;;;21.75;7.40;;;6.60;99.90;;;;;;5044504;28;20451;-82
2023/02/02 07:41:01;;;;;;;14.00;6.72;;;6.60;99.90;;;;;;5072608;28;20029;-82
2023/02/02 07:43:26;;;;;;;25.40;5.93;;;6.60;99.90;;;;;;5079279;28;20062;-82
2023/02/02 07:45:52;;;;;;;22.52;5.75;;;6.60;99.90;;;;;;5076470;28;20028;-82
2023/02/02 07:48:17;;;;;;;17.70;6.20;;;6.60;99.90;;;;;;5060847;28;20124;-83
2023/02/02 07:50:43;;;;;;;23.02;7.88;;;6.60;99.90;;;;;;5084853;28;20032;-83
2023/02/02 07:53:09;;;;;;;23.27;9.00;;;6.60;99.90;;;;;;5062345;28;20055;-83
2023/02/02 07:55:35;;;;;;;24.45;8.50;;;6.60;99.90;;;;;;5068224;28;20035;-83
2023/02/02 07:58:01;;;;;;;35.60;8.57;;;6.60;99.90;;;;;;5076733;28;20036;-82
2023/02/02 08:00:28;;;;;;;16.58;5.22;;;6.60;99.90;;;;;;5089683;28;20043;-83
2023/02/02 08:02:53;;;;;;;16.48;6.32;;;6.60;99.90;;;;;;5058744;28;20051;-82
2023/02/02 08:05:21;;;;;;;29.83;8.05;;;6.60;99.90;;;;;;5070203;28;20529;-82
2023/02/02 08:07:47;;;;;;;16.77;5.65;;;6.70;99.90;;;;;;5087706;28;20097;-82
2023/02/02 08:10:13;;;;;;;22.17;8.82;;;6.60;99.90;;;;;;5065997;28;20036;-82
2023/02/02 08:12:39;;;;;;;29.45;9.10;;;6.60;99.90;;;;;;5089431;28;20024;-82
2023/02/02 08:15:06;;;;;;;35.67;10.43;;;6.70;99.90;;;;;;5090659;28;20032;-85
2023/02/02 08:17:31;;;;;;;26.92;8.45;;;6.70;99.90;;;;;;5072082;28;20147;-81
2023/02/02 08:19:57;;;;;;;24.50;9.05;;;6.70;99.90;;;;;;5055890;28;20042;-82
2023/02/02 08:22:22;;;;;;;23.02;8.07;;;6.70;99.90;;;;;;5087027;28;20032;-81
2023/02/02 08:24:48;;;;;;;18.65;6.78;;;6.70;99.90;;;;;;5092099;28;20373;-81
2023/02/02 08:27:14;;;;;;;24.42;6.55;;;6.70;99.90;;;;;;5083916;28;20078;-82
2023/02/02 08:29:41;;;;;;;34.78;9.07;;;6.70;99.90;;;;;;5075398;28;20680;-83
2023/02/02 08:32:07;;;;;;;15.25;5.88;;;6.70;99.90;;;;;;5075764;28;20488;-81
2023/02/02 08:34:35;;;;;;;32.30;8.90;;;6.70;99.90;;;;;;5076817;28;20024;-82
2023/02/02 08:37:04;;;;;;;17.38;8.30;;;6.70;99.90;;;;;;5087662;28;20881;-82
2023/02/02 08:39:29;;;;;;;23.17;7.00;;;6.70;99.90;;;;;;5087726;28;20035;-82
2023/02/02 08:41:55;;;;;;;24.27;8.10;;;6.70;99.90;;;;;;5074059;28;20040;-83
2023/02/02 08:44:21;;;;;;;19.25;6.22;;;6.80;99.90;;;;;;5064925;28;20028;-83
2023/02/02 08:46:46;;;;;;;23.50;7.53;;;6.80;99.90;;;;;;5071936;28;21552;-82
2023/02/02 08:49:12;;;;;;;25.25;9.07;;;6.80;99.90;;;;;;5084082;28;20040;-83
2023/02/02 08:51:37;;;;;;;25.35;6.78;;;6.80;99.90;;;;;;5083841;28;20025;-80
2023/02/02 08:54:03;;;;;;;22.48;8.15;;;6.80;99.90;;;;;;5068346;28;20047;-83
2023/02/02 08:56:28;;;;;;;22.27;7.18;;;6.80;99.90;;;;;;5071357;28;20028;-83
2023/02/02 08:58:57;;;;;;;26.75;8.13;;;6.80;99.90;;;;;;5070316;28;20032;-84
2023/02/02 09:01:27;;;;;;;16.42;5.47;;;6.80;99.90;;;;;;5057081;28;20453;-83
2023/02/02 09:04:01;;;;;;;15.98;6.60;;;6.80;99.90;;;;;;5088806;28;20114;-83
2023/02/02 09:06:45;;;;;;;22.98;7.30;;;6.80;99.90;;;;;;5072623;28;20074;-83
2023/02/02 09:09:14;;;;;;;22.73;8.10;;;6.80;99.90;;;;;;5068669;28;20028;-84
2023/02/02 09:11:40;;;;;;;17.65;5.95;;;6.80;99.90;;;;;;5077476;28;20028;-84
2023/02/02 09:14:06;;;;;;;21.83;8.80;;;6.80;99.90;;;;;;5056348;28;20426;-83
2023/02/02 09:16:32;;;;;;;19.30;8.15;;;6.90;99.90;;;;;;5090275;28;20057;-84
2023/02/02 09:18:59;;;;;;;18.95;6.63;;;6.90;99.90;;;;;;5057459;28;20036;-83
2023/02/02 09:21:24;;;;;;;18.45;5.68;;;6.90;99.90;;;;;;5054640;28;20055;-83
2023/02/02 09:23:52;;;;;;;20.30;7.70;;;6.90;99.90;;;;;;5045076;28;20063;-83
2023/02/02 09:26:18;;;;;;;20.55;7.85;;;6.90;99.90;;;;;;5067456;28;20036;-84
2023/02/02 09:28:48;;;;;;;16.80;7.25;;;6.90;99.90;;;;;;5067486;28;20127;-83
2023/02/02 09:31:21;;;;;;;25.55;8.90;;;6.80;99.90;;;;;;5075953;28;20063;-84
2023/02/02 09:33:47;;;;;;;18.15;8.25;;;6.90;99.90;;;;;;5070537;27;20526;-84
2023/02/02 09:36:15;;;;;;;17.02;8.07;;;6.90;99.90;;;;;;5046709;28;20063;-84
2023/02/02 09:38:41;;;;;;;11.35;4.63;;;6.90;99.90;;;;;;5056906;28;20064;-84
2023/02/02 09:41:38;;;;;;;21.17;8.07;;;7.00;99.90;;;;;;5049561;28;20119;-84
2023/02/02 09:44:28;;;;;;;18.33;7.38;;;7.00;99.90;;;;;;5089354;27;20040;-83
2023/02/02 09:47:16;;;;;;;22.55;9.38;;;7.00;99.90;;;;;;5066657;28;20032;-83
2023/02/02 09:50:03;;;;;;;19.42;7.10;;;7.00;99.90;;;;;;5084650;28;20028;-85
2023/02/02 09:52:43;;;;;;;21.98;6.00;;;7.10;99.90;;;;;;5081116;28;20030;-85
2023/02/02 09:55:35;;;;;;;25.92;10.88;;;7.10;99.90;;;;;;5077226;28;20052;-84
2023/02/02 09:58:23;;;;;;;23.48;10.75;;;7.10;99.90;;;;;;5062794;28;20020;-82
2023/02/02 10:01:06;;;;;;;25.30;11.90;;;7.10;99.90;;;;;;5065253;28;20492;-84
2023/02/02 10:04:00;;;;;;;24.05;10.00;;;7.00;99.90;;;;;;5073346;28;20027;-85
2023/02/02 10:06:33;;;;;;;25.88;9.70;;;7.00;99.90;;;;;;5081436;28;20036;-84
2023/02/02 10:09:04;;;;;;;32.03;11.20;;;7.00;99.90;;;;;;5074676;28;20029;-82
2023/02/02 10:11:41;;;;;;;24.88;10.77;;;7.00;99.90;;;;;;5074004;28;20031;-82
2023/02/02 10:14:17;;;;;;;20.98;9.60;;;7.00;99.90;;;;;;5055076;28;20101;-83
2023/02/02 10:16:42;;;;;;;;;;;7.00;99.90;;;;;;5066800;28;20035;-83
2023/02/02 10:19:12;;;;;;;29.03;12.67;;;7.10;99.90;;;;;;5057808;28;19912;-82
2023/02/02 10:21:45;;;;;;;32.13;9.90;;;7.00;99.90;;;;;;5066716;28;20059;-83
2023/02/02 10:24:21;;;;;;;30.20;11.02;;;7.00;99.90;;;;;;5056119;28;20264;-83
2023/02/02 10:26:54;;;;;;;18.77;8.05;;;7.00;99.90;;;;;;5035005;28;20036;-82
2023/02/02 10:29:23;;;;;;;23.90;9.98;;;7.10;99.90;;;;;;5060560;28;20086;-83
2023/02/02 10:31:51;;;;;;;13.35;5.63;;;7.10;99.90;;;;;;5081507;27;20066;-82
2023/02/02 10:34:31;;;;;;;28.25;10.25;;;7.10;99.90;;;;;;5075032;28;20032;-83
2023/02/02 10:37:20;;;;;;;21.48;8.77;;;7.10;99.90;;;;;;5029174;28;20509;-82
2023/02/02 10:40:13;;;;;;;23.73;9.68;;;7.10;99.90;;;;;;5059491;28;20073;-83
2023/02/02 10:43:44;;;;;;;20.90;9.27;;;7.10;99.90;;;;;;5075309;28;20028;-83
2023/02/02 10:45:37;;;;;;;20.42;8.52;;;7.10;99.90;;;;;;5080780;28;20395;-83
2023/02/02 10:48:07;;;;;;;15.77;7.13;;;7.10;99.90;;;;;;5071763;28;20043;-82
2023/02/02 10:50:33;;;;;;;22.00;7.47;;;7.10;99.90;;;;;;5070492;28;20038;-81
2023/02/02 10:53:00;;;;;;;22.88;8.15;;;7.10;99.90;;;;;;5054766;28;20396;-82
2023/02/02 10:55:43;;;;;;;26.83;6.57;;;7.10;99.90;;;;;;5052113;28;20441;-81
2023/02/02 10:58:11;;;;;;;21.88;8.93;;;7.10;99.90;;;;;;5058836;28;20098;-81
2023/02/02 11:00:56;;;;;;;22.73;9.10;;;7.10;99.90;;;;;;5071565;28;20038;-81
2023/02/02 11:03:26;;;;;;;24.65;9.65;;;7.20;99.90;;;;;;5069009;28;20020;-82
2023/02/02 11:08:43;;;;;;;23.42;7.30;;;7.10;99.90;;;;;;5059762;28;20082;-81
2023/02/02 11:11:17;;;;;;;26.33;10.50;;;7.10;99.90;;;;;;5050781;28;20029;-82
2023/02/02 11:14:11;;;;;;;20.35;7.75;;;7.10;99.90;;;;;;5067869;28;20032;-82
2023/02/02 11:16:37;;;;;;;19.33;7.95;;;7.10;99.90;;;;;;5050204;28;20036;-82
2023/02/02 11:19:18;;;;;;;21.05;9.25;;;7.10;99.90;;;;;;5060560;28;20033;-81
2023/02/02 11:21:49;;;;;;;22.42;8.93;;;7.20;99.90;;;;;;5087462;28;20047;-82
2023/02/02 11:24:21;;;;;;;30.25;12.25;;;7.20;99.90;;;;;;5065722;28;20036;-82
2023/02/02 11:26:55;;;;;;;25.65;10.93;;;7.20;99.90;;;;;;5086823;28;20090;-82
2023/02/02 11:29:52;;;;;;;22.17;8.77;;;7.20;99.90;;;;;;5048829;28;20041;-82
2023/02/02 11:32:34;;;;;;;20.92;9.02;;;7.20;99.90;;;;;;5064114;28;20066;-82
2023/02/02 11:35:05;;;;;;;29.60;9.38;;;7.20;99.90;;;;;;5078323;28;20512;-81
2023/02/02 11:37:32;;;;;;;20.70;8.15;;;7.20;99.90;;;;;;5079857;28;20056;-83
2023/02/02 11:40:36;;;;;;;22.55;9.30;;;7.20;99.90;;;;;;5046917;28;20038;-82
2023/02/02 11:43:16;;;;;;;20.05;10.38;;;7.20;99.90;;;;;;5084875;27;20039;-83
2023/02/02 11:45:42;;;;;;;20.95;9.85;;;7.20;99.90;;;;;;5068855;28;20028;-83
2023/02/02 11:48:17;;;;;;;21.48;8.57;;;7.20;99.90;;;;;;5086303;28;20100;-83
2023/02/02 11:50:50;;;;;;;20.42;8.40;;;7.30;99.90;;;;;;5084212;28;20029;-82
2023/02/02 11:53:41;;;;;;;26.95;9.63;;;7.30;99.90;;;;;;5070523;28;20341;-82
2023/02/02 11:56:17;;;;;;;22.00;7.57;;;7.30;99.90;;;;;;5064470;28;20056;-80
2023/02/02 11:58:58;;;;;;;17.33;7.75;;;7.30;99.90;;;;;;5046390;28;20418;-78
2023/02/02 12:01:31;;;;;;;27.70;10.40;;;7.30;99.90;;;;;;5047201;28;20554;-79
2023/02/02 12:03:58;;;;;;;20.23;8.02;;;7.30;99.90;;;;;;5064936;28;20037;-78
2023/02/02 12:06:33;;;;;;;26.85;10.35;;;7.30;99.90;;;;;;5051856;28;20047;-79
2023/02/02 12:09:00;;;;;;;21.30;7.37;;;7.40;99.90;;;;;;5058843;28;20051;-78
2023/02/02 12:11:33;;;;;;;18.23;8.32;;;7.40;99.90;;;;;;5059979;28;20773;-79
2023/02/02 12:14:12;;;;;;;19.77;8.20;;;7.40;99.90;;;;;;4717378;28;10000230;-80
2023/02/02 12:16:56;;;;;;;28.95;9.05;;;7.40;99.90;;;;;;5074616;28;20056;-79
2023/02/02 12:19:24;;;;;;;20.90;8.60;;;7.40;99.90;;;;;;5038449;28;20851;-79
2023/02/02 12:22:35;;;;;;;10.43;3.65;;;7.40;99.90;;;;;;5076495;28;20033;-79
2023/02/02 12:25:25;;;;;;;23.83;6.95;;;7.40;99.90;;;;;;5031654;28;20043;-80
2023/02/02 12:28:06;;;;;;;18.98;7.18;;;7.40;99.90;;;;;;5088858;28;20036;-79
2023/02/02 12:30:52;;;;;;;18.73;6.75;;;7.30;99.90;;;;;;5072638;28;20567;-79
2023/02/02 12:33:30;;;;;;;19.08;7.65;;;7.30;99.90;;;;;;5072253;28;20495;-80
2023/02/02 12:36:07;;;;;;;16.27;6.25;;;7.30;99.90;;;;;;5086209;28;20040;-79
2023/02/02 12:38:56;;;;;;;25.17;8.25;;;7.30;99.90;;;;;;5062437;28;20032;-79
2023/02/02 12:41:41;;;;;;;19.10;6.85;;;7.30;99.90;;;;;;5033370;28;20100;-79
2023/02/02 12:44:15;;;;;;;21.80;7.18;;;7.40;99.90;;;;;;5085061;27;20024;-79
2023/02/02 12:47:16;;;;;;;20.60;6.75;;;7.30;99.90;;;;;;5071559;28;20035;-79
2023/02/02 12:50:02;;;;;;;25.65;7.57;;;7.30;99.90;;;;;;5038156;28;20033;-79
2023/02/02 12:53:00;;;;;;;21.13;7.75;;;7.30;99.90;;;;;;5063166;28;20509;-79
2023/02/02 12:56:07;;;;;;;11.60;4.57;;;7.30;99.90;;;;;;5001460;28;20544;-79
2023/02/02 12:58:37;;;;;;;11.98;5.60;;;7.30;99.90;;;;;;5001806;28;20048;-79
2023/02/02 13:01:24;;;;;;;24.92;7.57;;;7.30;99.90;;;;;;5072429;28;20060;-79
2023/02/02 13:04:19;;;;;;;14.70;5.97;;;7.30;99.90;;;;;;5074427;28;20118;-79
2023/02/02 13:07:14;;;;;;;19.98;7.65;;;7.40;99.90;;;;;;5057146;28;20563;-79
2023/02/02 13:09:41;;;;;;;20.02;9.35;;;7.30;99.90;;;;;;5056737;28;20495;-80
2023/02/02 13:12:11;;;;;;;22.95;9.55;;;7.30;99.90;;;;;;5062381;28;20039;-79
2023/02/02 13:14:40;;;;;;;17.55;5.82;;;7.30;99.90;;;;;;5061363;28;20021;-79
2023/02/02 13:17:39;;;;;;;14.90;6.85;;;7.30;99.90;;;;;;5080911;27;20480;-79
2023/02/02 13:20:38;;;;;;;15.10;6.50;;;7.40;99.90;;;;;;5065856;28;20518;-79